Time;durP1;ratioP1;P1;durP2;ratioP2;P2;SDS_P1;SDS_P2;PMS_P1;PMS_P2;Temp;Humidity;BMP_temperature;BMP_pressure;BME280_temperature;BME280_humidity;BME280_pressure;Samples;Min_cycle;Max_cycle;Signal;HPM_P1;HPM_P2
2023/06/07 00:02:02;;;;;;;11.73;5.97;;;;;;;-144.85;100.00;61331.59;5092502;28;31857;-71
2023/06/07 00:04:30;;;;;;;13.60;6.43;;;;;;;-144.85;100.00;61331.59;5094451;28;31937;-72
2023/06/07 00:07:00;;;;;;;11.52;6.15;;;;;;;-144.85;100.00;61331.59;5089230;28;32453;-71
2023/06/07 00:09:29;;;;;;;13.52;5.88;;;;;;;-144.85;100.00;61331.59;5094939;28;32309;-71
2023/06/07 00:11:57;;;;;;;15.73;6.38;;;;;;;-144.85;100.00;61331.59;5091476;28;32160;-71
2023/06/07 00:14:24;;;;;;;12.27;6.07;;;;;;;-144.85;100.00;61331.59;5093302;28;32314;-71
2023/06/07 00:16:53;;;;;;;14.80;6.80;;;;;;;-144.85;100.00;61331.59;5089844;28;31486;-71
2023/06/07 00:19:25;;;;;;;10.55;5.93;;;;;;;-144.85;100.00;61331.59;5079060;28;31541;-71
2023/06/07 00:21:52;;;;;;;10.68;5.97;;;;;;;-144.85;100.00;61331.59;5095830;28;33041;-71
2023/06/07 00:24:20;;;;;;;11.68;6.30;;;;;;;-144.85;100.00;61331.59;5065010;28;31738;-72
2023/06/07 00:26:47;;;;;;;14.32;6.25;;;;;;;-144.85;100.00;61331.59;5098135;28;32589;-71
2023/06/07 00:29:15;;;;;;;13.70;6.32;;;;;;;-144.85;100.00;61331.59;5076301;28;31459;-71
2023/06/07 00:31:42;;;;;;;10.88;5.95;;;;;;;-144.85;100.00;61331.59;5097114;28;31981;-71
2023/06/07 00:34:09;;;;;;;12.00;6.30;;;;;;;-144.85;100.00;61331.59;5092126;28;32431;-71
2023/06/07 00:36:37;;;;;;;11.75;6.32;;;;;;;-144.85;100.00;61331.59;5098883;28;31510;-72
2023/06/07 00:39:04;;;;;;;10.98;5.93;;;;;;;-144.85;100.00;61331.59;5094810;28;33401;-71
2023/06/07 00:41:31;;;;;;;13.65;6.15;;;;;;;-144.85;100.00;61331.59;5078915;28;31118;-71
2023/06/07 00:44:01;;;;;;;11.57;6.47;;;;;;;-144.85;100.00;61331.59;5066104;28;31011;-71
2023/06/07 00:46:30;;;;;;;8.55;5.80;;;;;;;-144.85;100.00;61331.59;5070154;28;30315;-71
2023/06/07 00:48:57;;;;;;;14.45;6.50;;;;;;;-144.85;100.00;61331.59;5047758;28;32575;-71
2023/06/07 00:51:29;;;;;;;13.10;6.70;;;;;;;-144.85;100.00;61331.59;5096372;28;32232;-70
2023/06/07 00:54:00;;;;;;;14.73;6.50;;;;;;;-144.85;100.00;61331.59;5095252;28;32617;-70
2023/06/07 00:56:28;;;;;;;13.07;6.70;;;;;;;-144.85;100.00;61331.59;5098568;28;32135;-70
2023/06/07 00:58:56;;;;;;;13.70;7.10;;;;;;;-144.85;100.00;61331.59;5061263;28;31379;-70
2023/06/07 01:01:24;;;;;;;12.55;6.63;;;;;;;-144.85;100.00;61331.59;5058944;28;31015;-70
2023/06/07 01:03:53;;;;;;;13.05;6.10;;;;;;;-144.85;100.00;61331.59;5095360;28;33315;-70
2023/06/07 01:06:24;;;;;;;13.55;6.75;;;;;;;-144.85;100.00;61331.59;5092297;28;31610;-70
2023/06/07 01:08:51;;;;;;;12.52;6.78;;;;;;;-144.85;100.00;61331.59;5076041;28;32310;-70
2023/06/07 01:11:24;;;;;;;12.82;6.10;;;;;;;-144.85;100.00;61331.59;5062944;28;31181;-70
2023/06/07 01:13:51;;;;;;;10.10;6.40;;;;;;;-144.85;100.00;61331.59;5092393;28;31924;-70
2023/06/07 01:16:19;;;;;;;12.57;7.18;;;;;;;-144.85;100.00;61331.59;5096123;28;32542;-70
2023/06/07 01:18:46;;;;;;;12.65;6.68;;;;;;;-144.85;100.00;61331.59;5064613;28;31156;-70
2023/06/07 01:21:18;;;;;;;9.77;6.35;;;;;;;-144.85;100.00;61331.59;5094537;28;32124;-70
2023/06/07 01:23:48;;;;;;;13.25;6.50;;;;;;;-144.85;100.00;61331.59;5098674;28;32058;-70
2023/06/07 01:26:16;;;;;;;14.57;7.05;;;;;;;-144.85;100.00;61331.59;5078579;28;32426;-70
2023/06/07 01:28:45;;;;;;;15.38;7.15;;;;;;;-144.85;100.00;61331.59;5095312;28;33488;-70
2023/06/07 01:31:13;;;;;;;10.68;6.43;;;;;;;-144.85;100.00;61331.59;5078947;28;29982;-70
2023/06/07 01:33:41;;;;;;;12.32;6.85;;;;;;;-144.85;100.00;61331.59;5088523;28;31920;-70
2023/06/07 01:36:09;;;;;;;13.57;7.03;;;;;;;-144.85;100.00;61331.59;5091118;28;32191;-70
2023/06/07 01:38:39;;;;;;;12.90;7.07;;;;;;;-144.85;100.00;61331.59;5094820;28;32411;-70
2023/06/07 01:41:08;;;;;;;12.55;7.30;;;;;;;-144.85;100.00;61331.59;5094969;28;32324;-70
2023/06/07 01:43:37;;;;;;;16.42;7.40;;;;;;;-144.85;100.00;61331.59;5095069;28;31923;-70
2023/06/07 01:46:05;;;;;;;15.18;7.43;;;;;;;-144.85;100.00;61331.59;5043277;28;31942;-70
2023/06/07 01:48:32;;;;;;;10.15;7.30;;;;;;;-144.85;100.00;61331.59;5095037;28;32079;-70
2023/06/07 01:50:59;;;;;;;15.02;7.25;;;;;;;-144.85;100.00;61331.59;5095362;28;33875;-70
2023/06/07 01:53:29;;;;;;;15.13;8.10;;;;;;;-144.85;100.00;61331.59;5066882;28;31019;-72
2023/06/07 01:56:22;;;;;;;13.32;7.38;;;;;;;-144.85;100.00;61331.59;5092814;28;30591;-73
2023/06/07 01:59:21;;;;;;;12.10;7.03;;;;;;;-144.85;100.00;61331.59;5077032;28;31758;-71
2023/06/07 02:01:57;;;;;;;15.65;7.28;;;;;;;-144.85;100.00;61331.59;5087159;28;31452;-70
2023/06/07 02:04:28;;;;;;;14.98;7.55;;;;;;;-144.85;100.00;61331.59;5100292;28;31826;-70
2023/06/07 02:07:00;;;;;;;14.93;6.97;;;;;;;-144.85;100.00;61331.59;5098014;28;31466;-70
2023/06/07 02:09:31;;;;;;;18.48;7.90;;;;;;;-144.85;100.00;61331.59;5080642;28;32712;-71
2023/06/07 02:12:01;;;;;;;13.40;7.07;;;;;;;-144.85;100.00;61331.59;5064976;28;31340;-70
2023/06/07 02:14:29;;;;;;;16.27;7.45;;;;;;;-144.85;100.00;61331.59;5079358;28;30788;-70
2023/06/07 02:16:56;;;;;;;13.57;7.65;;;;;;;-144.85;100.00;61331.59;5047198;28;30225;-71
2023/06/07 02:19:24;;;;;;;17.02;7.75;;;;;;;-144.85;100.00;61331.59;5063747;28;31580;-70
2023/06/07 02:21:51;;;;;;;14.98;7.13;;;;;;;-144.85;100.00;61331.59;5094645;28;31983;-70
2023/06/07 02:24:19;;;;;;;15.57;7.38;;;;;;;-144.85;100.00;61331.59;5084708;28;30738;-70
2023/06/07 02:26:46;;;;;;;14.07;7.90;;;;;;;-144.85;100.00;61331.59;5095961;28;31759;-71
2023/06/07 02:29:14;;;;;;;14.10;7.00;;;;;;;-144.85;100.00;61331.59;5095367;28;31330;-70
2023/06/07 02:31:41;;;;;;;16.10;7.78;;;;;;;-144.85;100.00;61331.59;5096214;28;32015;-71
2023/06/07 02:34:09;;;;;;;13.77;7.60;;;;;;;-144.85;100.00;61331.59;5099157;28;32923;-71
2023/06/07 02:36:39;;;;;;;12.15;6.90;;;;;;;-144.85;100.00;61331.59;5080578;28;31352;-71
2023/06/07 02:39:08;;;;;;;14.30;7.30;;;;;;;-144.85;100.00;61331.59;5081309;28;32283;-71
2023/06/07 02:41:36;;;;;;;15.48;7.88;;;;;;;-144.85;100.00;61331.59;5095122;28;32315;-70
2023/06/07 02:44:03;;;;;;;15.45;7.38;;;;;;;-144.85;100.00;61331.59;5104683;28;32089;-71
2023/06/07 02:46:30;;;;;;;17.95;7.45;;;;;;;-144.85;100.00;61331.59;5102441;28;32650;-70
2023/06/07 02:48:57;;;;;;;19.10;7.78;;;;;;;-144.85;100.00;61331.59;5079304;28;32476;-71
2023/06/07 02:51:25;;;;;;;14.65;7.13;;;;;;;-144.85;100.00;61331.59;5064591;28;31282;-71
2023/06/07 02:53:54;;;;;;;16.08;7.35;;;;;;;-144.85;100.00;61331.59;5099684;28;32573;-71
2023/06/07 02:56:23;;;;;;;11.50;6.47;;;;;;;-144.85;100.00;61331.59;5079091;28;30342;-71
2023/06/07 02:58:51;;;;;;;12.63;6.78;;;;;;;-144.85;100.00;61331.59;5097735;28;32479;-71
2023/06/07 03:01:19;;;;;;;16.58;7.25;;;;;;;-144.85;100.00;61331.59;5068118;28;31266;-71
2023/06/07 03:03:50;;;;;;;16.35;7.18;;;;;;;-144.85;100.00;61331.59;5076547;28;32896;-71
2023/06/07 03:06:19;;;;;;;12.30;7.38;;;;;;;-144.85;100.00;61331.59;5065455;28;30508;-71
2023/06/07 03:08:47;;;;;;;12.00;6.97;;;;;;;-144.85;100.00;61331.59;5073648;28;31330;-71
2023/06/07 03:11:18;;;;;;;14.38;6.65;;;;;;;-144.85;100.00;61331.59;5068256;28;31288;-71
2023/06/07 03:13:48;;;;;;;14.65;6.63;;;;;;;-144.85;100.00;61331.59;5076181;28;31559;-71
2023/06/07 03:16:19;;;;;;;16.20;7.18;;;;;;;-144.85;100.00;61331.59;5079553;28;31021;-71
2023/06/07 03:18:57;;;;;;;15.65;6.85;;;;;;;-144.85;100.00;61331.59;5075851;28;32941;-71
2023/06/07 03:21:28;;;;;;;12.30;6.03;;;;;;;-144.85;100.00;61331.59;5100218;28;32810;-71
2023/06/07 03:23:59;;;;;;;12.43;6.03;;;;;;;-144.85;100.00;61331.59;5055374;28;31139;-71
2023/06/07 03:26:27;;;;;;;12.30;6.10;;;;;;;-144.85;100.00;61331.59;5083704;28;31917;-71
2023/06/07 03:28:56;;;;;;;16.40;5.97;;;;;;;-144.85;100.00;61331.59;5094675;28;33492;-71
2023/06/07 03:31:28;;;;;;;12.13;6.00;;;;;;;-144.85;100.00;61331.59;5073199;28;32187;-71
2023/06/07 03:34:01;;;;;;;12.75;6.28;;;;;;;-144.85;100.00;61331.59;5080225;28;31233;-71
2023/06/07 03:36:29;;;;;;;13.43;6.30;;;;;;;-144.85;100.00;61331.59;5097594;28;32599;-71
2023/06/07 03:38:58;;;;;;;13.50;6.47;;;;;;;-144.85;100.00;61331.59;5072453;28;33123;-71
2023/06/07 03:41:26;;;;;;;11.98;6.47;;;;;;;-144.85;100.00;61331.59;5082843;28;30987;-71
2023/06/07 03:43:55;;;;;;;14.68;6.63;;;;;;;-144.85;100.00;61331.59;5072545;28;30799;-71
2023/06/07 03:46:24;;;;;;;12.32;6.85;;;;;;;-144.85;100.00;61331.59;5082403;28;30495;-71
2023/06/07 03:48:52;;;;;;;14.68;6.30;;;;;;;-144.85;100.00;61331.59;5074361;28;32078;-71
2023/06/07 03:51:22;;;;;;;13.98;6.53;;;;;;;-144.85;100.00;61331.59;5083290;28;31101;-71
2023/06/07 03:53:50;;;;;;;16.58;6.82;;;;;;;-144.85;100.00;61331.59;5083071;28;30534;-71
2023/06/07 03:56:17;;;;;;;12.45;6.00;;;;;;;-144.85;100.00;61331.59;5065285;28;31792;-70
2023/06/07 03:58:46;;;;;;;13.25;7.00;;;;;;;-144.85;100.00;61331.59;5053401;28;31327;-70
2023/06/07 04:01:17;;;;;;;12.40;6.25;;;;;;;-144.85;100.00;61331.59;5056404;28;30988;-70
2023/06/07 04:03:45;;;;;;;13.23;6.43;;;;;;;-144.85;100.00;61331.59;5081427;28;31263;-69
2023/06/07 04:06:14;;;;;;;14.13;6.53;;;;;;;-144.85;100.00;61331.59;5076360;28;30635;-70
2023/06/07 04:08:43;;;;;;;13.50;6.32;;;;;;;-144.85;100.00;61331.59;5065630;28;31302;-70
2023/06/07 04:11:10;;;;;;;14.80;6.65;;;;;;;-144.85;100.00;61331.59;5098581;28;33141;-69
2023/06/07 04:13:41;;;;;;;13.85;7.25;;;;;;;-144.85;100.00;61331.59;5079777;28;31561;-70
2023/06/07 04:16:09;;;;;;;15.10;6.00;;;;;;;-144.85;100.00;61331.59;5063636;28;30519;-70
2023/06/07 04:18:38;;;;;;;11.25;5.90;;;;;;;-144.85;100.00;61331.59;5079999;28;31341;-69
2023/06/07 04:21:06;;;;;;;11.52;6.13;;;;;;;-144.85;100.00;61331.59;5080692;28;31102;-69
2023/06/07 04:23:34;;;;;;;8.45;5.80;;;;;;;-144.85;100.00;61331.59;5082804;28;30984;-69
2023/06/07 04:26:05;;;;;;;10.10;5.78;;;;;;;-144.85;100.00;61331.59;5078547;28;31769;-70
2023/06/07 04:28:32;;;;;;;13.55;6.13;;;;;;;-144.85;100.00;61331.59;5067714;28;31512;-70
2023/06/07 04:31:02;;;;;;;11.38;6.03;;;;;;;-144.85;100.00;61331.59;5080462;28;31465;-70
2023/06/07 04:33:32;;;;;;;14.77;6.70;;;;;;;-144.85;100.00;61331.59;5079628;28;30910;-71
2023/06/07 04:35:59;;;;;;;15.43;6.05;;;;;;;-144.85;100.00;61331.59;5083101;28;31354;-71
2023/06/07 04:38:29;;;;;;;10.98;6.18;;;;;;;-144.85;100.00;61331.59;5094312;28;31306;-71
2023/06/07 04:41:06;;;;;;;14.48;6.47;;;;;;;-144.85;100.00;61331.59;5080615;28;31165;-71
2023/06/07 04:43:38;;;;;;;10.30;6.10;;;;;;;-144.85;100.00;61331.59;5055318;28;32173;-70
2023/06/07 04:46:09;;;;;;;14.25;6.75;;;;;;;-144.85;100.00;61331.59;5085458;28;30461;-70
2023/06/07 04:48:40;;;;;;;13.52;6.50;;;;;;;-144.85;100.00;61331.59;5077350;28;31488;-70
2023/06/07 04:51:09;;;;;;;14.02;6.32;;;;;;;-144.85;100.00;61331.59;5100968;28;30917;-71
2023/06/07 04:53:42;;;;;;;12.15;6.32;;;;;;;-144.85;100.00;61331.59;5082789;28;31165;-70
2023/06/07 04:56:13;;;;;;;11.70;6.30;;;;;;;-144.85;100.00;61331.59;5065010;28;31549;-70
2023/06/07 04:58:40;;;;;;;11.77;6.35;;;;;;;-144.85;100.00;61331.59;5077996;28;31903;-70
2023/06/07 05:01:11;;;;;;;15.23;6.55;;;;;;;-144.85;100.00;61331.59;5063010;28;30993;-70
2023/06/07 05:03:42;;;;;;;13.45;5.63;;;;;;;-144.85;100.00;61331.59;5065611;28;30861;-71
2023/06/07 05:06:18;;;;;;;13.10;6.40;;;;;;;-144.85;100.00;61331.59;5065240;28;32013;-70
2023/06/07 05:08:49;;;;;;;21.90;6.40;;;;;;;-144.85;100.00;61331.59;5077303;28;31449;-71
2023/06/07 05:11:17;;;;;;;11.85;6.05;;;;;;;-144.85;100.00;61331.59;5079920;28;31230;-71
2023/06/07 05:13:46;;;;;;;12.40;6.03;;;;;;;-144.85;100.00;61331.59;5065831;28;31082;-70
2023/06/07 05:16:16;;;;;;;16.50;6.80;;;;;;;-144.85;100.00;61331.59;5063177;28;31823;-70
2023/06/07 05:18:46;;;;;;;12.68;5.70;;;;;;;-144.85;100.00;61331.59;5085821;28;32201;-71
2023/06/07 05:21:17;;;;;;;15.65;5.70;;;;;;;-144.85;100.00;61331.59;5076310;28;32432;-71
2023/06/07 05:23:45;;;;;;;13.45;6.20;;;;;;;-144.85;100.00;61331.59;5076631;28;31092;-71
2023/06/07 05:26:13;;;;;;;11.20;6.07;;;;;;;-144.85;100.00;61331.59;5080305;28;30884;-71
2023/06/07 05:28:40;;;;;;;12.27;6.20;;;;;;;-144.85;100.00;61331.59;5096781;28;32415;-70
2023/06/07 05:31:07;;;;;;;14.27;6.47;;;;;;;-144.85;100.00;61331.59;5084979;28;31180;-71
2023/06/07 05:33:38;;;;;;;14.20;5.90;;;;;;;-144.85;100.00;61331.59;5065843;28;30622;-70
2023/06/07 05:36:07;;;;;;;14.00;6.25;;;;;;;-144.85;100.00;61331.59;5068387;28;30560;-71
2023/06/07 05:38:35;;;;;;;15.35;6.55;;;;;;;-144.85;100.00;61331.59;5078910;28;31761;-70
2023/06/07 05:41:03;;;;;;;15.32;6.63;;;;;;;-144.85;100.00;61331.59;5100000;28;32127;-71
2023/06/07 05:43:30;;;;;;;12.77;5.60;;;;;;;-144.85;100.00;61331.59;5098986;28;32326;-71
2023/06/07 05:45:57;;;;;;;10.00;5.65;;;;;;;-144.85;100.00;61331.59;5101596;28;32014;-71
2023/06/07 05:48:24;;;;;;;13.07;6.20;;;;;;;-144.85;100.00;61331.59;5084529;28;31498;-71
2023/06/07 05:50:53;;;;;;;16.38;6.20;;;;;;;-144.85;100.00;61331.59;5083693;28;31494;-71
2023/06/07 05:53:20;;;;;;;11.82;5.93;;;;;;;-144.85;100.00;61331.59;5084144;28;30712;-70
2023/06/07 05:55:48;;;;;;;15.65;6.13;;;;;;;-144.85;100.00;61331.59;5104524;28;31351;-71
2023/06/07 05:58:15;;;;;;;11.52;5.80;;;;;;;-144.85;100.00;61331.59;5102896;28;32479;-71
2023/06/07 06:00:44;;;;;;;12.27;6.45;;;;;;;-144.85;100.00;61331.59;5099839;28;32879;-71
2023/06/07 06:03:11;;;;;;;11.85;6.07;;;;;;;-144.85;100.00;61331.59;5080525;28;31866;-71
2023/06/07 06:05:38;;;;;;;17.60;6.47;;;;;;;-144.85;100.00;61331.59;5099522;28;31413;-71
2023/06/07 06:08:05;;;;;;;17.45;6.03;;;;;;;-144.85;100.00;61331.59;5107163;28;33219;-71
2023/06/07 06:10:33;;;;;;;15.55;6.85;;;;;;;-144.85;100.00;61331.59;5110964;28;31931;-71
2023/06/07 06:13:02;;;;;;;11.88;6.25;;;;;;;-144.85;100.00;61331.59;5098913;28;31876;-71
2023/06/07 06:15:29;;;;;;;12.63;6.07;;;;;;;-144.85;100.00;61331.59;5098936;28;31146;-71
2023/06/07 06:17:56;;;;;;;13.93;6.20;;;;;;;-144.85;100.00;61331.59;5098900;28;32039;-71
2023/06/07 06:20:23;;;;;;;12.32;5.80;;;;;;;-144.85;100.00;61331.59;5080324;28;32231;-71
2023/06/07 06:22:51;;;;;;;11.93;5.95;;;;;;;-144.85;100.00;61331.59;5098645;28;32623;-71
2023/06/07 06:25:18;;;;;;;9.82;5.70;;;;;;;-144.85;100.00;61331.59;5098772;28;31528;-71
2023/06/07 06:27:45;;;;;;;11.70;6.30;;;;;;;-144.85;100.00;61331.59;5078271;28;31841;-71
2023/06/07 06:30:13;;;;;;;14.00;6.18;;;;;;;-144.85;100.00;61331.59;5098562;28;31864;-71
2023/06/07 06:32:40;;;;;;;13.88;6.18;;;;;;;-144.85;100.00;61331.59;5099084;28;32991;-72
2023/06/07 06:35:08;;;;;;;12.40;6.00;;;;;;;-144.85;100.00;61331.59;5083442;28;32504;-71
2023/06/07 06:37:35;;;;;;;10.15;5.90;;;;;;;-144.85;100.00;61331.59;5101368;28;32039;-71
2023/06/07 06:40:04;;;;;;;12.00;6.00;;;;;;;-144.85;100.00;61331.59;5096294;28;33053;-72
2023/06/07 06:42:32;;;;;;;12.57;5.80;;;;;;;-144.85;100.00;61331.59;5096306;28;31848;-71
2023/06/07 06:45:26;;;;;;;12.65;5.70;;;;;;;-144.85;100.00;61331.59;5073246;28;32220;-71
2023/06/07 06:47:53;;;;;;;13.15;6.40;;;;;;;-144.85;100.00;61331.59;5097886;28;32468;-71
2023/06/07 06:50:21;;;;;;;15.05;5.60;;;;;;;-144.85;100.00;61331.59;5097468;28;32889;-71
2023/06/07 06:52:59;;;;;;;16.88;6.32;;;;;;;-144.85;100.00;61331.59;5094041;28;32168;-71
2023/06/07 06:55:37;;;;;;;13.93;5.72;;;;;;;-144.85;100.00;61331.59;5098747;28;33174;-72
2023/06/07 06:58:04;;;;;;;12.98;6.20;;;;;;;-144.85;100.00;61331.59;5104116;28;32140;-71
2023/06/07 07:00:35;;;;;;;12.38;5.90;;;;;;;-144.85;100.00;61331.59;5098534;28;32014;-71
2023/06/07 07:03:02;;;;;;;13.55;6.40;;;;;;;-144.85;100.00;61331.59;5079635;28;32226;-71
2023/06/07 07:05:29;;;;;;;12.15;5.88;;;;;;;-144.85;100.00;61331.59;5079437;28;31221;-71
2023/06/07 07:07:57;;;;;;;13.02;5.72;;;;;;;-144.85;100.00;61331.59;5079547;28;32556;-71
2023/06/07 07:10:24;;;;;;;10.55;5.25;;;;;;;-144.85;100.00;61331.59;5098351;28;31981;-71
2023/06/07 07:12:52;;;;;;;13.65;5.85;;;;;;;-144.85;100.00;61331.59;5098190;28;31930;-71
2023/06/07 07:15:20;;;;;;;12.90;5.40;;;;;;;-144.85;100.00;61331.59;5097459;28;31927;-72
2023/06/07 07:17:48;;;;;;;13.88;6.00;;;;;;;-144.85;100.00;61331.59;5072814;28;33795;-72
2023/06/07 07:20:17;;;;;;;12.57;5.65;;;;;;;-144.85;100.00;61331.59;5096900;28;31960;-72
2023/06/07 07:22:46;;;;;;;12.95;5.93;;;;;;;-144.85;100.00;61331.59;5071604;28;32021;-72
2023/06/07 07:25:14;;;;;;;13.70;5.65;;;;;;;-144.85;100.00;61331.59;5068004;28;32121;-72
2023/06/07 07:27:42;;;;;;;13.63;6.00;;;;;;;-144.85;100.00;61331.59;5098133;28;32349;-71
2023/06/07 07:30:09;;;;;;;14.48;5.80;;;;;;;-144.85;100.00;61331.59;5097612;28;32228;-72
2023/06/07 07:32:37;;;;;;;12.73;6.10;;;;;;;-144.85;100.00;61331.59;5098078;28;31469;-73
2023/06/07 07:35:05;;;;;;;13.35;5.70;;;;;;;-144.85;100.00;61331.59;5049436;28;30783;-73
2023/06/07 07:37:32;;;;;;;12.43;5.60;;;;;;;-144.85;100.00;61331.59;5081166;28;32851;-73
2023/06/07 07:39:59;;;;;;;13.40;5.75;;;;;;;-144.85;100.00;61331.59;5077967;28;33698;-74
2023/06/07 07:42:27;;;;;;;12.23;5.78;;;;;;;-144.85;100.00;61331.59;5072500;28;32787;-73
2023/06/07 07:44:54;;;;;;;14.50;5.85;;;;;;;-144.85;100.00;61331.59;5092397;28;31131;-73
2023/06/07 07:47:21;;;;;;;11.45;5.95;;;;;;;-144.85;100.00;61331.59;5054666;28;32526;-73
2023/06/07 07:49:51;;;;;;;14.32;6.55;;;;;;;-144.85;100.00;61331.59;5101770;28;31206;-73
2023/06/07 07:52:19;;;;;;;13.07;6.07;;;;;;;-144.85;100.00;61331.59;5097804;28;32164;-73
2023/06/07 07:54:48;;;;;;;15.50;6.15;;;;;;;-144.85;100.00;61331.59;5096251;28;32056;-73
2023/06/07 07:57:16;;;;;;;15.27;5.82;;;;;;;-144.85;100.00;61331.59;5096917;28;33318;-73
2023/06/07 07:59:43;;;;;;;14.45;6.03;;;;;;;-144.85;100.00;61331.59;5097125;28;32804;-73
2023/06/07 08:02:11;;;;;;;15.82;6.45;;;;;;;-144.85;100.00;61331.59;5095296;28;32906;-73
2023/06/07 08:04:38;;;;;;;15.05;6.43;;;;;;;-144.85;100.00;61331.59;5063884;28;31654;-73
2023/06/07 08:07:06;;;;;;;13.77;5.97;;;;;;;-144.85;100.00;61331.59;5090593;28;32438;-73
2023/06/07 08:09:33;;;;;;;13.63;6.03;;;;;;;-144.85;100.00;61331.59;5096434;28;31854;-73
2023/06/07 08:12:00;;;;;;;11.93;5.82;;;;;;;-144.85;100.00;61331.59;5097929;28;33043;-73
2023/06/07 08:14:27;;;;;;;14.50;6.68;;;;;;;-144.85;100.00;61331.59;5078900;28;31572;-73
2023/06/07 08:16:55;;;;;;;18.10;6.38;;;;;;;-144.85;100.00;61331.59;5095009;28;33205;-73
2023/06/07 08:19:22;;;;;;;12.27;6.28;;;;;;;-144.85;100.00;61331.59;5096068;28;32436;-73
2023/06/07 08:21:50;;;;;;;14.35;6.22;;;;;;;-144.85;100.00;61331.59;5097263;28;31733;-73
2023/06/07 08:24:18;;;;;;;16.58;6.53;;;;;;;-144.85;100.00;61331.59;5097138;28;31637;-73
2023/06/07 08:26:46;;;;;;;13.63;6.43;;;;;;;-144.85;100.00;61331.59;5097446;28;32197;-74
2023/06/07 08:29:14;;;;;;;14.05;6.35;;;;;;;-144.85;100.00;61331.59;5104240;28;32673;-73
2023/06/07 08:31:43;;;;;;;14.43;6.15;;;;;;;-144.85;100.00;61331.59;5072056;28;32537;-73
2023/06/07 08:34:10;;;;;;;14.50;5.95;;;;;;;-144.85;100.00;61331.59;5090259;28;32365;-73
2023/06/07 08:36:41;;;;;;;13.43;6.25;;;;;;;-144.85;100.00;61331.59;5065063;28;32617;-73
2023/06/07 08:39:09;;;;;;;14.32;6.22;;;;;;;-144.85;100.00;61331.59;5054712;28;34139;-73
2023/06/07 08:41:36;;;;;;;14.25;6.00;;;;;;;-144.85;100.00;61331.59;5075180;28;31911;-73
2023/06/07 08:44:03;;;;;;;12.45;6.35;;;;;;;-144.85;100.00;61331.59;5058181;28;31562;-73
2023/06/07 08:46:31;;;;;;;10.93;5.85;;;;;;;-144.85;100.00;61331.59;5091251;28;33673;-73
2023/06/07 08:49:00;;;;;;;15.48;6.43;;;;;;;-144.85;100.00;61331.59;5072057;28;32179;-74
2023/06/07 08:51:28;;;;;;;12.68;6.40;;;;;;;-144.85;100.00;61331.59;5089230;28;31699;-73
2023/06/07 08:54:03;;;;;;;16.05;6.63;;;;;;;-144.85;100.00;61331.59;5087968;28;31727;-73
2023/06/07 08:56:32;;;;;;;14.70;6.45;;;;;;;-144.85;100.00;61331.59;5094024;28;32401;-73
2023/06/07 08:59:02;;;;;;;14.45;6.75;;;;;;;-144.85;100.00;61331.59;5097851;28;32383;-73
2023/06/07 09:01:29;;;;;;;15.25;6.43;;;;;;;-144.85;100.00;61331.59;5063382;28;31627;-73
2023/06/07 09:03:58;;;;;;;13.18;6.70;;;;;;;-144.85;100.00;61331.59;5092769;28;31146;-72
2023/06/07 09:06:26;;;;;;;13.55;6.80;;;;;;;-144.85;100.00;61331.59;5077184;28;33336;-73
2023/06/07 09:08:53;;;;;;;14.93;6.50;;;;;;;-144.85;100.00;61331.59;5063645;28;32005;-74
2023/06/07 09:11:21;;;;;;;12.30;6.85;;;;;;;-144.85;100.00;61331.59;5085923;28;32622;-75
2023/06/07 09:13:49;;;;;;;18.50;7.00;;;;;;;-144.85;100.00;61331.59;5094769;28;32589;-73
2023/06/07 09:16:17;;;;;;;14.30;6.43;;;;;;;-144.85;100.00;61331.59;5083643;28;32163;-73
2023/06/07 09:18:54;;;;;;;10.65;6.20;;;;;;;-144.85;100.00;61331.59;5078794;28;32867;-73
2023/06/07 09:21:31;;;;;;;17.23;7.03;;;;;;;-144.85;100.00;61331.59;5091250;28;31797;-74
2023/06/07 09:23:59;;;;;;;12.85;6.38;;;;;;;-144.85;100.00;61331.59;5058974;28;31480;-73
2023/06/07 09:26:38;;;;;;;16.77;6.85;;;;;;;-144.85;100.00;61331.59;5050265;28;32612;-73
2023/06/07 09:29:10;;;;;;;18.73;6.55;;;;;;;-144.85;100.00;61331.59;5069058;28;32248;-73
2023/06/07 09:31:37;;;;;;;15.45;6.45;;;;;;;-144.85;100.00;61331.59;5067411;28;32015;-73
2023/06/07 09:34:20;;;;;;;11.32;5.88;;;;;;;-144.85;100.00;61331.59;5099801;28;31176;-74
2023/06/07 09:36:49;;;;;;;12.95;6.43;;;;;;;-144.85;100.00;61331.59;5081524;28;33075;-74
2023/06/07 09:39:25;;;;;;;12.57;6.18;;;;;;;-144.85;100.00;61331.59;5081880;28;32911;-73
2023/06/07 09:41:54;;;;;;;;;;;;;;;-144.85;100.00;61331.59;5079395;28;31721;-74
2023/06/07 09:44:28;;;;;;;13.70;6.20;;;;;;;-144.85;100.00;61331.59;5088569;28;31266;-74
2023/06/07 09:46:57;;;;;;;14.18;6.32;;;;;;;-144.85;100.00;61331.59;5078951;28;33604;-74
2023/06/07 09:49:34;;;;;;;16.67;6.18;;;;;;;-144.85;100.00;61331.59;5099476;28;31025;-74
2023/06/07 09:52:04;;;;;;;13.23;6.45;;;;;;;-144.85;100.00;61331.59;5100617;28;32063;-73
2023/06/07 09:54:39;;;;;;;18.33;6.13;;;;;;;-144.85;100.00;61331.59;5080932;28;32567;-73
2023/06/07 09:57:08;;;;;;;;;;;;;;;-144.85;100.00;61331.59;5086600;28;31576;-74
2023/06/07 09:59:54;;;;;;;12.45;6.30;;;;;;;-144.85;100.00;61331.59;5100005;28;32388;-74
2023/06/07 10:02:24;;;;;;;12.88;7.13;;;;;;;-144.85;100.00;61331.59;5095102;28;31905;-74
2023/06/07 10:04:52;;;;;;;12.60;7.07;;;;;;;-144.85;100.00;61331.59;5075869;28;32828;-74
2023/06/07 10:07:27;;;;;;;12.48;6.60;;;;;;;-144.85;100.00;61331.59;5094891;28;33434;-73
2023/06/07 10:09:57;;;;;;;12.32;6.70;;;;;;;-144.85;100.00;61331.59;5092270;28;31999;-74
2023/06/07 10:12:28;;;;;;;12.90;6.63;;;;;;;-144.85;100.00;61331.59;5075599;28;33368;-75
2023/06/07 10:15:00;;;;;;;12.55;7.03;;;;;;;-144.85;100.00;61331.59;5099270;28;31445;-74
2023/06/07 10:17:55;;;;;;;16.88;7.63;;;;;;;-144.85;100.00;61331.59;5093244;28;32288;-73
2023/06/07 10:20:40;;;;;;;13.98;7.68;;;;;;;-144.85;100.00;61331.59;5078278;28;32823;-74
2023/06/07 10:23:12;;;;;;;10.55;7.22;;;;;;;-144.85;100.00;61331.59;5091178;28;32221;-74
2023/06/07 10:25:47;;;;;;;16.02;7.40;;;;;;;-144.85;100.00;61331.59;5095492;28;31242;-74
2023/06/07 10:28:21;;;;;;;16.73;7.22;;;;;;;-144.85;100.00;61331.59;5076339;28;31504;-73
2023/06/07 10:30:55;;;;;;;14.17;7.13;;;;;;;-144.85;100.00;61331.59;5078261;28;33240;-74
2023/06/07 10:33:26;;;;;;;15.05;7.28;;;;;;;-144.85;100.00;61331.59;5064010;28;33492;-74
2023/06/07 10:35:55;;;;;;;15.20;7.53;;;;;;;-144.85;100.00;61331.59;5099810;28;32827;-74
2023/06/07 10:38:22;;;;;;;15.32;7.35;;;;;;;-144.85;100.00;61331.59;5080359;28;32200;-72
2023/06/07 10:40:51;;;;;;;13.65;6.95;;;;;;;-144.85;100.00;61331.59;5097867;28;31989;-74
2023/06/07 10:43:19;;;;;;;14.23;7.68;;;;;;;-144.85;100.00;61331.59;5099311;28;31261;-74
2023/06/07 10:45:47;;;;;;;13.85;7.38;;;;;;;-144.85;100.00;61331.59;5101134;28;31840;-74
2023/06/07 10:48:34;;;;;;;15.70;7.75;;;;;;;-144.85;100.00;61331.59;5082597;28;31278;-74
2023/06/07 10:51:02;;;;;;;14.85;7.45;;;;;;;-144.85;100.00;61331.59;5103039;28;33425;-75
2023/06/07 10:53:48;;;;;;;15.10;7.95;;;;;;;-144.85;100.00;61331.59;5053763;28;30700;-75
2023/06/07 10:56:32;;;;;;;11.15;6.28;;;;;;;-144.85;100.00;61331.59;5086864;28;32283;-74
2023/06/07 10:59:15;;;;;;;13.13;6.60;;;;;;;-144.85;100.00;61331.59;5100874;28;33284;-74
2023/06/07 11:01:45;;;;;;;15.40;6.68;;;;;;;-144.85;100.00;61331.59;5080948;28;31106;-75
2023/06/07 11:04:33;;;;;;;13.95;6.88;;;;;;;-144.85;100.00;61331.59;5108870;28;31867;-74
2023/06/07 11:07:20;;;;;;;24.30;7.13;;;;;;;-144.85;100.00;61331.59;5114045;28;32051;-74
2023/06/07 11:10:03;;;;;;;13.38;6.47;;;;;;;-144.85;100.00;61331.59;5103484;28;32378;-74
2023/06/07 11:12:40;;;;;;;17.30;7.13;;;;;;;-144.85;100.00;61331.59;5099328;28;33365;-74
2023/06/07 11:15:17;;;;;;;14.20;6.75;;;;;;;-144.85;100.00;61331.59;5095269;28;32441;-73